sensor_id;sensor_type;location;lat;lon;timestamp;P1;durP1;ratioP1;P2;durP2;ratioP2
12812;SDS011;6471;50.932;6.934;2023-07-29T00:01:04;1.87;;;1.57;;
12812;SDS011;6471;50.932;6.934;2023-07-29T00:03:30;2.00;;;1.80;;
12812;SDS011;6471;50.932;6.934;2023-07-29T00:05:57;2.37;;;1.57;;
12812;SDS011;6471;50.932;6.934;2023-07-29T00:08:23;1.60;;;1.50;;
12812;SDS011;6471;50.932;6.934;2023-07-29T00:10:49;1.80;;;1.60;;
12812;SDS011;6471;50.932;6.934;2023-07-29T00:13:15;1.90;;;1.60;;
12812;SDS011;6471;50.932;6.934;2023-07-29T00:15:41;1.40;;;1.30;;
12812;SDS011;6471;50.932;6.934;2023-07-29T00:18:07;1.53;;;1.40;;
12812;SDS011;6471;50.932;6.934;2023-07-29T00:20:33;1.70;;;1.60;;
12812;SDS011;6471;50.932;6.934;2023-07-29T00:22:59;1.50;;;1.40;;
12812;SDS011;6471;50.932;6.934;2023-07-29T00:25:26;1.57;;;1.47;;
12812;SDS011;6471;50.932;6.934;2023-07-29T00:27:54;1.47;;;1.37;;
12812;SDS011;6471;50.932;6.934;2023-07-29T00:30:20;2.33;;;1.80;;
12812;SDS011;6471;50.932;6.934;2023-07-29T00:32:46;2.00;;;1.70;;
12812;SDS011;6471;50.932;6.934;2023-07-29T00:35:12;1.90;;;1.60;;
12812;SDS011;6471;50.932;6.934;2023-07-29T00:37:38;2.77;;;2.43;;
12812;SDS011;6471;50.932;6.934;2023-07-29T00:40:09;2.90;;;2.60;;
12812;SDS011;6471;50.932;6.934;2023-07-29T00:42:38;2.30;;;2.10;;
12812;SDS011;6471;50.932;6.934;2023-07-29T00:45:04;2.30;;;2.00;;
12812;SDS011;6471;50.932;6.934;2023-07-29T00:47:32;2.30;;;1.90;;
12812;SDS011;6471;50.932;6.934;2023-07-29T00:49:58;1.93;;;1.73;;
12812;SDS011;6471;50.932;6.934;2023-07-29T00:52:24;1.60;;;1.50;;
12812;SDS011;6471;50.932;6.934;2023-07-29T00:54:50;1.87;;;1.70;;
12812;SDS011;6471;50.932;6.934;2023-07-29T00:57:16;1.90;;;1.40;;
12812;SDS011;6471;50.932;6.934;2023-07-29T00:59:43;1.47;;;1.37;;
12812;SDS011;6471;50.932;6.934;2023-07-29T01:02:09;1.70;;;1.40;;
12812;SDS011;6471;50.932;6.934;2023-07-29T01:04:35;1.40;;;1.30;;
12812;SDS011;6471;50.932;6.934;2023-07-29T01:07:14;1.40;;;1.30;;
12812;SDS011;6471;50.932;6.934;2023-07-29T01:09:54;1.63;;;1.40;;
12812;SDS011;6471;50.932;6.934;2023-07-29T01:15:03;1.30;;;1.20;;
12812;SDS011;6471;50.932;6.934;2023-07-29T01:17:36;1.10;;;1.00;;
12812;SDS011;6471;50.932;6.934;2023-07-29T01:20:14;1.40;;;1.20;;
12812;SDS011;6471;50.932;6.934;2023-07-29T01:22:40;1.30;;;1.00;;
12812;SDS011;6471;50.932;6.934;2023-07-29T01:25:07;1.30;;;1.20;;
12812;SDS011;6471;50.932;6.934;2023-07-29T01:27:33;1.33;;;1.20;;
12812;SDS011;6471;50.932;6.934;2023-07-29T01:29:59;1.40;;;1.20;;
12812;SDS011;6471;50.932;6.934;2023-07-29T01:37:26;1.30;;;1.20;;
12812;SDS011;6471;50.932;6.934;2023-07-29T01:39:53;1.20;;;1.10;;
12812;SDS011;6471;50.932;6.934;2023-07-29T01:42:21;1.40;;;1.23;;
12812;SDS011;6471;50.932;6.934;2023-07-29T01:44:47;1.20;;;1.10;;
12812;SDS011;6471;50.932;6.934;2023-07-29T01:47:13;1.40;;;1.30;;
12812;SDS011;6471;50.932;6.934;2023-07-29T01:49:39;2.20;;;1.20;;
12812;SDS011;6471;50.932;6.934;2023-07-29T01:52:05;1.60;;;1.50;;
12812;SDS011;6471;50.932;6.934;2023-07-29T01:54:31;1.83;;;1.60;;
12812;SDS011;6471;50.932;6.934;2023-07-29T01:56:57;1.60;;;1.40;;
12812;SDS011;6471;50.932;6.934;2023-07-29T01:59:23;1.40;;;1.30;;
12812;SDS011;6471;50.932;6.934;2023-07-29T02:01:49;1.73;;;1.57;;
12812;SDS011;6471;50.932;6.934;2023-07-29T02:04:15;1.53;;;1.43;;
12812;SDS011;6471;50.932;6.934;2023-07-29T02:06:41;2.53;;;1.60;;
12812;SDS011;6471;50.932;6.934;2023-07-29T02:09:07;2.13;;;1.50;;
12812;SDS011;6471;50.932;6.934;2023-07-29T02:11:34;1.50;;;1.40;;
12812;SDS011;6471;50.932;6.934;2023-07-29T02:14:00;1.47;;;1.37;;
12812;SDS011;6471;50.932;6.934;2023-07-29T02:16:26;1.40;;;1.30;;
12812;SDS011;6471;50.932;6.934;2023-07-29T02:18:52;1.50;;;1.40;;
12812;SDS011;6471;50.932;6.934;2023-07-29T02:21:18;1.20;;;1.10;;
12812;SDS011;6471;50.932;6.934;2023-07-29T02:23:44;1.30;;;1.20;;
12812;SDS011;6471;50.932;6.934;2023-07-29T02:26:10;1.20;;;1.10;;
12812;SDS011;6471;50.932;6.934;2023-07-29T02:28:36;1.13;;;1.03;;
12812;SDS011;6471;50.932;6.934;2023-07-29T02:31:16;0.90;;;0.90;;
12812;SDS011;6471;50.932;6.934;2023-07-29T02:33:43;1.03;;;1.00;;
12812;SDS011;6471;50.932;6.934;2023-07-29T02:36:10;1.50;;;1.07;;
12812;SDS011;6471;50.932;6.934;2023-07-29T02:38:36;1.10;;;1.00;;
12812;SDS011;6471;50.932;6.934;2023-07-29T02:41:02;1.10;;;1.00;;
12812;SDS011;6471;50.932;6.934;2023-07-29T02:43:28;1.23;;;1.13;;
12812;SDS011;6471;50.932;6.934;2023-07-29T02:45:54;0.83;;;0.83;;
12812;SDS011;6471;50.932;6.934;2023-07-29T02:48:20;1.20;;;1.10;;
12812;SDS011;6471;50.932;6.934;2023-07-29T02:50:46;1.10;;;0.90;;
12812;SDS011;6471;50.932;6.934;2023-07-29T02:53:12;0.80;;;0.80;;
12812;SDS011;6471;50.932;6.934;2023-07-29T02:55:41;1.10;;;1.00;;
12812;SDS011;6471;50.932;6.934;2023-07-29T02:58:07;1.33;;;1.10;;
12812;SDS011;6471;50.932;6.934;2023-07-29T03:00:33;0.87;;;0.73;;
12812;SDS011;6471;50.932;6.934;2023-07-29T03:03:00;0.80;;;0.80;;
12812;SDS011;6471;50.932;6.934;2023-07-29T03:05:29;1.07;;;0.90;;
12812;SDS011;6471;50.932;6.934;2023-07-29T03:07:55;1.10;;;1.00;;
12812;SDS011;6471;50.932;6.934;2023-07-29T03:10:21;0.90;;;0.80;;
12812;SDS011;6471;50.932;6.934;2023-07-29T03:12:47;0.90;;;0.90;;
12812;SDS011;6471;50.932;6.934;2023-07-29T03:15:14;1.10;;;0.93;;
12812;SDS011;6471;50.932;6.934;2023-07-29T03:17:40;1.20;;;1.00;;
12812;SDS011;6471;50.932;6.934;2023-07-29T03:20:06;0.80;;;0.80;;
12812;SDS011;6471;50.932;6.934;2023-07-29T03:22:32;1.03;;;1.00;;
12812;SDS011;6471;50.932;6.934;2023-07-29T03:24:58;1.37;;;1.00;;
12812;SDS011;6471;50.932;6.934;2023-07-29T03:27:24;0.80;;;0.70;;
12812;SDS011;6471;50.932;6.934;2023-07-29T03:29:50;0.90;;;0.80;;
12812;SDS011;6471;50.932;6.934;2023-07-29T03:32:16;0.80;;;0.80;;
12812;SDS011;6471;50.932;6.934;2023-07-29T03:34:42;0.87;;;0.77;;
12812;SDS011;6471;50.932;6.934;2023-07-29T03:37:08;0.60;;;0.60;;
12812;SDS011;6471;50.932;6.934;2023-07-29T03:39:35;0.80;;;0.80;;
12812;SDS011;6471;50.932;6.934;2023-07-29T03:42:01;0.90;;;0.80;;
12812;SDS011;6471;50.932;6.934;2023-07-29T03:44:28;1.17;;;0.77;;
12812;SDS011;6471;50.932;6.934;2023-07-29T03:46:54;0.80;;;0.80;;
12812;SDS011;6471;50.932;6.934;2023-07-29T03:49:20;1.03;;;0.90;;
12812;SDS011;6471;50.932;6.934;2023-07-29T03:51:46;0.80;;;0.80;;
12812;SDS011;6471;50.932;6.934;2023-07-29T03:54:12;0.83;;;0.80;;
12812;SDS011;6471;50.932;6.934;2023-07-29T03:56:38;2.73;;;1.20;;
12812;SDS011;6471;50.932;6.934;2023-07-29T03:59:04;1.30;;;1.20;;
12812;SDS011;6471;50.932;6.934;2023-07-29T04:01:31;1.20;;;1.10;;
12812;SDS011;6471;50.932;6.934;2023-07-29T04:03:58;1.20;;;1.10;;
12812;SDS011;6471;50.932;6.934;2023-07-29T04:06:24;1.40;;;1.10;;
12812;SDS011;6471;50.932;6.934;2023-07-29T04:08:50;1.57;;;1.20;;
12812;SDS011;6471;50.932;6.934;2023-07-29T04:11:16;1.33;;;1.10;;
12812;SDS011;6471;50.932;6.934;2023-07-29T04:13:42;1.20;;;1.10;;
12812;SDS011;6471;50.932;6.934;2023-07-29T04:16:08;1.53;;;1.20;;
12812;SDS011;6471;50.932;6.934;2023-07-29T04:18:34;1.40;;;1.20;;
12812;SDS011;6471;50.932;6.934;2023-07-29T04:21:00;1.20;;;0.97;;
12812;SDS011;6471;50.932;6.934;2023-07-29T04:23:27;1.67;;;1.30;;
12812;SDS011;6471;50.932;6.934;2023-07-29T04:25:53;1.60;;;1.30;;
12812;SDS011;6471;50.932;6.934;2023-07-29T04:28:22;1.00;;;0.90;;
12812;SDS011;6471;50.932;6.934;2023-07-29T04:30:48;1.00;;;0.90;;
12812;SDS011;6471;50.932;6.934;2023-07-29T04:33:14;1.33;;;1.23;;
12812;SDS011;6471;50.932;6.934;2023-07-29T04:35:40;1.10;;;1.00;;
12812;SDS011;6471;50.932;6.934;2023-07-29T04:38:06;1.10;;;1.00;;
12812;SDS011;6471;50.932;6.934;2023-07-29T04:40:33;1.20;;;1.10;;
12812;SDS011;6471;50.932;6.934;2023-07-29T04:43:02;1.30;;;1.20;;
12812;SDS011;6471;50.932;6.934;2023-07-29T04:45:28;1.30;;;1.20;;
12812;SDS011;6471;50.932;6.934;2023-07-29T04:47:55;1.10;;;1.00;;
12812;SDS011;6471;50.932;6.934;2023-07-29T04:50:21;1.20;;;1.10;;
12812;SDS011;6471;50.932;6.934;2023-07-29T04:52:47;1.17;;;1.07;;
12812;SDS011;6471;50.932;6.934;2023-07-29T04:55:13;1.20;;;1.10;;
12812;SDS011;6471;50.932;6.934;2023-07-29T04:57:39;1.20;;;1.10;;
12812;SDS011;6471;50.932;6.934;2023-07-29T05:00:06;1.20;;;1.10;;
12812;SDS011;6471;50.932;6.934;2023-07-29T05:02:32;1.23;;;1.13;;
12812;SDS011;6471;50.932;6.934;2023-07-29T05:04:58;1.20;;;1.10;;
12812;SDS011;6471;50.932;6.934;2023-07-29T05:07:24;1.20;;;1.10;;
12812;SDS011;6471;50.932;6.934;2023-07-29T05:09:50;1.20;;;1.10;;
12812;SDS011;6471;50.932;6.934;2023-07-29T05:12:16;1.37;;;1.20;;
12812;SDS011;6471;50.932;6.934;2023-07-29T05:14:42;2.10;;;1.30;;
12812;SDS011;6471;50.932;6.934;2023-07-29T05:17:08;1.10;;;1.00;;
12812;SDS011;6471;50.932;6.934;2023-07-29T05:19:34;1.10;;;1.00;;
12812;SDS011;6471;50.932;6.934;2023-07-29T05:22:00;1.10;;;1.00;;
12812;SDS011;6471;50.932;6.934;2023-07-29T05:24:26;1.20;;;1.10;;
12812;SDS011;6471;50.932;6.934;2023-07-29T05:26:53;1.40;;;1.20;;
12812;SDS011;6471;50.932;6.934;2023-07-29T05:29:19;1.20;;;1.10;;
12812;SDS011;6471;50.932;6.934;2023-07-29T05:31:45;1.33;;;1.23;;
12812;SDS011;6471;50.932;6.934;2023-07-29T05:34:11;1.30;;;1.20;;
12812;SDS011;6471;50.932;6.934;2023-07-29T05:36:37;1.53;;;1.20;;
12812;SDS011;6471;50.932;6.934;2023-07-29T05:39:04;1.40;;;1.30;;
12812;SDS011;6471;50.932;6.934;2023-07-29T05:41:30;1.20;;;1.10;;
12812;SDS011;6471;50.932;6.934;2023-07-29T05:43:56;1.13;;;1.03;;
12812;SDS011;6471;50.932;6.934;2023-07-29T05:46:22;1.03;;;1.00;;
12812;SDS011;6471;50.932;6.934;2023-07-29T05:48:48;1.30;;;1.20;;
12812;SDS011;6471;50.932;6.934;2023-07-29T05:51:14;1.30;;;1.20;;
12812;SDS011;6471;50.932;6.934;2023-07-29T05:53:40;1.30;;;1.20;;
12812;SDS011;6471;50.932;6.934;2023-07-29T05:56:06;1.27;;;1.17;;
12812;SDS011;6471;50.932;6.934;2023-07-29T05:58:33;1.17;;;1.10;;
12812;SDS011;6471;50.932;6.934;2023-07-29T06:00:59;1.47;;;1.10;;
12812;SDS011;6471;50.932;6.934;2023-07-29T06:03:25;1.40;;;1.30;;
12812;SDS011;6471;50.932;6.934;2023-07-29T06:05:51;1.40;;;1.30;;
12812;SDS011;6471;50.932;6.934;2023-07-29T06:08:18;1.73;;;1.40;;
12812;SDS011;6471;50.932;6.934;2023-07-29T06:10:44;1.20;;;1.10;;
12812;SDS011;6471;50.932;6.934;2023-07-29T06:13:10;1.27;;;1.17;;
12812;SDS011;6471;50.932;6.934;2023-07-29T06:15:36;1.23;;;1.10;;
12812;SDS011;6471;50.932;6.934;2023-07-29T06:18:02;1.30;;;1.20;;
12812;SDS011;6471;50.932;6.934;2023-07-29T06:20:28;1.70;;;1.50;;
12812;SDS011;6471;50.932;6.934;2023-07-29T06:22:54;2.23;;;1.30;;
12812;SDS011;6471;50.932;6.934;2023-07-29T06:25:20;1.47;;;1.37;;
12812;SDS011;6471;50.932;6.934;2023-07-29T06:27:47;2.23;;;1.60;;
12812;SDS011;6471;50.932;6.934;2023-07-29T06:30:13;2.40;;;1.50;;
12812;SDS011;6471;50.932;6.934;2023-07-29T06:32:39;1.70;;;1.60;;
12812;SDS011;6471;50.932;6.934;2023-07-29T06:35:05;2.83;;;1.40;;
12812;SDS011;6471;50.932;6.934;2023-07-29T06:37:32;2.00;;;1.70;;
12812;SDS011;6471;50.932;6.934;2023-07-29T06:39:58;2.27;;;1.60;;
12812;SDS011;6471;50.932;6.934;2023-07-29T06:42:24;2.10;;;1.40;;
12812;SDS011;6471;50.932;6.934;2023-07-29T06:44:50;1.57;;;1.40;;
12812;SDS011;6471;50.932;6.934;2023-07-29T06:47:16;2.10;;;1.40;;
12812;SDS011;6471;50.932;6.934;2023-07-29T06:49:45;2.30;;;1.53;;
12812;SDS011;6471;50.932;6.934;2023-07-29T06:52:11;2.43;;;1.70;;
12812;SDS011;6471;50.932;6.934;2023-07-29T06:54:37;3.23;;;1.83;;
12812;SDS011;6471;50.932;6.934;2023-07-29T06:57:03;2.53;;;1.60;;
12812;SDS011;6471;50.932;6.934;2023-07-29T06:59:29;2.23;;;1.73;;
12812;SDS011;6471;50.932;6.934;2023-07-29T07:01:56;1.60;;;1.50;;
12812;SDS011;6471;50.932;6.934;2023-07-29T07:04:22;1.97;;;1.60;;
12812;SDS011;6471;50.932;6.934;2023-07-29T07:06:48;1.80;;;1.40;;
12812;SDS011;6471;50.932;6.934;2023-07-29T07:09:14;1.40;;;1.30;;
12812;SDS011;6471;50.932;6.934;2023-07-29T07:11:40;1.70;;;1.60;;
12812;SDS011;6471;50.932;6.934;2023-07-29T07:14:06;1.50;;;1.40;;
12812;SDS011;6471;50.932;6.934;2023-07-29T07:16:32;2.50;;;1.63;;
12812;SDS011;6471;50.932;6.934;2023-07-29T07:19:00;1.57;;;1.40;;
12812;SDS011;6471;50.932;6.934;2023-07-29T07:21:26;1.40;;;1.30;;
12812;SDS011;6471;50.932;6.934;2023-07-29T07:23:52;1.60;;;1.40;;
12812;SDS011;6471;50.932;6.934;2023-07-29T07:26:18;1.70;;;1.30;;
12812;SDS011;6471;50.932;6.934;2023-07-29T07:28:44;2.17;;;1.47;;
12812;SDS011;6471;50.932;6.934;2023-07-29T07:31:10;1.50;;;1.40;;
12812;SDS011;6471;50.932;6.934;2023-07-29T07:33:36;1.30;;;1.20;;
12812;SDS011;6471;50.932;6.934;2023-07-29T07:36:03;2.40;;;1.50;;
12812;SDS011;6471;50.932;6.934;2023-07-29T07:38:29;2.40;;;1.70;;
12812;SDS011;6471;50.932;6.934;2023-07-29T07:40:55;4.30;;;1.60;;
12812;SDS011;6471;50.932;6.934;2023-07-29T07:43:22;2.40;;;1.63;;
12812;SDS011;6471;50.932;6.934;2023-07-29T07:45:48;1.87;;;1.60;;
12812;SDS011;6471;50.932;6.934;2023-07-29T07:48:14;1.50;;;1.40;;
12812;SDS011;6471;50.932;6.934;2023-07-29T07:50:42;2.40;;;1.50;;
12812;SDS011;6471;50.932;6.934;2023-07-29T07:53:08;2.23;;;1.33;;
12812;SDS011;6471;50.932;6.934;2023-07-29T07:55:34;1.60;;;1.40;;
12812;SDS011;6471;50.932;6.934;2023-07-29T07:58:00;1.77;;;1.40;;
12812;SDS011;6471;50.932;6.934;2023-07-29T08:00:26;1.80;;;1.60;;
12812;SDS011;6471;50.932;6.934;2023-07-29T08:02:52;1.50;;;1.40;;
12812;SDS011;6471;50.932;6.934;2023-07-29T08:05:21;2.10;;;1.50;;
12812;SDS011;6471;50.932;6.934;2023-07-29T08:07:47;2.03;;;1.30;;
12812;SDS011;6471;50.932;6.934;2023-07-29T08:10:13;1.43;;;1.33;;
12812;SDS011;6471;50.932;6.934;2023-07-29T08:12:39;1.43;;;1.30;;
12812;SDS011;6471;50.932;6.934;2023-07-29T08:15:05;1.77;;;1.40;;
12812;SDS011;6471;50.932;6.934;2023-07-29T08:17:32;1.40;;;1.30;;
12812;SDS011;6471;50.932;6.934;2023-07-29T08:19:58;5.00;;;1.70;;
12812;SDS011;6471;50.932;6.934;2023-07-29T08:22:24;1.93;;;1.47;;
12812;SDS011;6471;50.932;6.934;2023-07-29T08:24:50;1.83;;;1.33;;
12812;SDS011;6471;50.932;6.934;2023-07-29T08:27:16;2.07;;;1.77;;
12812;SDS011;6471;50.932;6.934;2023-07-29T08:29:42;1.83;;;1.40;;
12812;SDS011;6471;50.932;6.934;2023-07-29T08:32:08;1.50;;;1.37;;
12812;SDS011;6471;50.932;6.934;2023-07-29T08:34:35;2.23;;;1.30;;
12812;SDS011;6471;50.932;6.934;2023-07-29T08:37:01;1.60;;;1.30;;
12812;SDS011;6471;50.932;6.934;2023-07-29T08:39:27;1.40;;;1.30;;
12812;SDS011;6471;50.932;6.934;2023-07-29T08:42:09;1.80;;;1.40;;
12812;SDS011;6471;50.932;6.934;2023-07-29T08:44:43;1.40;;;1.27;;
12812;SDS011;6471;50.932;6.934;2023-07-29T08:47:09;2.10;;;1.10;;
12812;SDS011;6471;50.932;6.934;2023-07-29T08:49:36;1.30;;;1.20;;
12812;SDS011;6471;50.932;6.934;2023-07-29T08:52:02;1.90;;;1.33;;
12812;SDS011;6471;50.932;6.934;2023-07-29T08:54:29;1.17;;;1.07;;
12812;SDS011;6471;50.932;6.934;2023-07-29T08:56:55;2.50;;;1.17;;
12812;SDS011;6471;50.932;6.934;2023-07-29T08:59:22;1.13;;;1.03;;
12812;SDS011;6471;50.932;6.934;2023-07-29T09:01:48;2.47;;;1.30;;
12812;SDS011;6471;50.932;6.934;2023-07-29T09:04:14;1.30;;;1.10;;
12812;SDS011;6471;50.932;6.934;2023-07-29T09:06:41;1.43;;;1.20;;
12812;SDS011;6471;50.932;6.934;2023-07-29T09:09:08;1.53;;;1.10;;
12812;SDS011;6471;50.932;6.934;2023-07-29T09:11:34;1.50;;;1.20;;
12812;SDS011;6471;50.932;6.934;2023-07-29T09:14:01;1.20;;;1.10;;
12812;SDS011;6471;50.932;6.934;2023-07-29T09:16:27;1.13;;;1.03;;
12812;SDS011;6471;50.932;6.934;2023-07-29T09:18:53;1.87;;;1.10;;
12812;SDS011;6471;50.932;6.934;2023-07-29T09:21:24;1.37;;;1.10;;
12812;SDS011;6471;50.932;6.934;2023-07-29T09:23:51;1.20;;;1.10;;
12812;SDS011;6471;50.932;6.934;2023-07-29T09:26:27;1.33;;;1.20;;
12812;SDS011;6471;50.932;6.934;2023-07-29T09:28:54;1.10;;;1.00;;
12812;SDS011;6471;50.932;6.934;2023-07-29T09:31:21;1.30;;;0.93;;
12812;SDS011;6471;50.932;6.934;2023-07-29T09:33:47;1.20;;;1.10;;
12812;SDS011;6471;50.932;6.934;2023-07-29T09:36:14;0.97;;;0.90;;
12812;SDS011;6471;50.932;6.934;2023-07-29T09:38:40;1.30;;;1.20;;
12812;SDS011;6471;50.932;6.934;2023-07-29T09:41:06;1.20;;;1.10;;
12812;SDS011;6471;50.932;6.934;2023-07-29T09:43:33;1.30;;;1.20;;
12812;SDS011;6471;50.932;6.934;2023-07-29T09:46:03;1.40;;;1.10;;
12812;SDS011;6471;50.932;6.934;2023-07-29T09:48:33;1.30;;;1.10;;
12812;SDS011;6471;50.932;6.934;2023-07-29T09:50:59;1.40;;;1.20;;
12812;SDS011;6471;50.932;6.934;2023-07-29T09:53:25;1.20;;;1.00;;
12812;SDS011;6471;50.932;6.934;2023-07-29T09:55:52;1.10;;;1.00;;
12812;SDS011;6471;50.932;6.934;2023-07-29T09:58:27;1.40;;;1.10;;
12812;SDS011;6471;50.932;6.934;2023-07-29T10:00:54;1.60;;;1.43;;
12812;SDS011;6471;50.932;6.934;2023-07-29T10:03:20;1.30;;;1.20;;
12812;SDS011;6471;50.932;6.934;2023-07-29T10:05:47;1.70;;;1.50;;
12812;SDS011;6471;50.932;6.934;2023-07-29T10:08:13;1.20;;;1.10;;
12812;SDS011;6471;50.932;6.934;2023-07-29T10:10:42;1.60;;;1.47;;
12812;SDS011;6471;50.932;6.934;2023-07-29T10:13:09;1.40;;;1.20;;
12812;SDS011;6471;50.932;6.934;2023-07-29T10:15:35;1.73;;;1.23;;
12812;SDS011;6471;50.932;6.934;2023-07-29T10:18:01;1.33;;;1.20;;
12812;SDS011;6471;50.932;6.934;2023-07-29T10:20:30;1.30;;;1.20;;
12812;SDS011;6471;50.932;6.934;2023-07-29T10:22:58;1.87;;;1.50;;
12812;SDS011;6471;50.932;6.934;2023-07-29T10:25:25;1.10;;;1.00;;
12812;SDS011;6471;50.932;6.934;2023-07-29T10:27:56;1.50;;;1.20;;
12812;SDS011;6471;50.932;6.934;2023-07-29T10:30:23;1.70;;;1.60;;
12812;SDS011;6471;50.932;6.934;2023-07-29T10:32:50;1.90;;;1.70;;
12812;SDS011;6471;50.932;6.934;2023-07-29T10:35:17;2.03;;;1.70;;
12812;SDS011;6471;50.932;6.934;2023-07-29T10:37:43;2.00;;;1.80;;
12812;SDS011;6471;50.932;6.934;2023-07-29T10:40:11;2.13;;;1.70;;
12812;SDS011;6471;50.932;6.934;2023-07-29T10:42:37;1.93;;;1.67;;
12812;SDS011;6471;50.932;6.934;2023-07-29T10:45:25;2.10;;;1.70;;
12812;SDS011;6471;50.932;6.934;2023-07-29T10:47:50;1.93;;;1.60;;
12812;SDS011;6471;50.932;6.934;2023-07-29T10:50:17;1.40;;;1.30;;
12812;SDS011;6471;50.932;6.934;2023-07-29T10:52:44;1.30;;;1.20;;
12812;SDS011;6471;50.932;6.934;2023-07-29T10:55:27;1.60;;;1.30;;
12812;SDS011;6471;50.932;6.934;2023-07-29T10:58:04;1.40;;;1.30;;
12812;SDS011;6471;50.932;6.934;2023-07-29T11:00:30;1.30;;;1.20;;
12812;SDS011;6471;50.932;6.934;2023-07-29T11:03:01;1.30;;;1.20;;
12812;SDS011;6471;50.932;6.934;2023-07-29T11:05:27;1.90;;;1.30;;
12812;SDS011;6471;50.932;6.934;2023-07-29T11:08:17;1.53;;;1.43;;
12812;SDS011;6471;50.932;6.934;2023-07-29T11:10:44;1.50;;;1.30;;
12812;SDS011;6471;50.932;6.934;2023-07-29T11:13:10;1.43;;;1.33;;
12812;SDS011;6471;50.932;6.934;2023-07-29T11:15:37;2.40;;;1.43;;
12812;SDS011;6471;50.932;6.934;2023-07-29T11:18:04;1.90;;;1.60;;
12812;SDS011;6471;50.932;6.934;2023-07-29T11:20:33;2.13;;;1.43;;
12812;SDS011;6471;50.932;6.934;2023-07-29T11:23:02;1.80;;;1.40;;
12812;SDS011;6471;50.932;6.934;2023-07-29T11:25:29;1.37;;;1.27;;
12812;SDS011;6471;50.932;6.934;2023-07-29T11:27:56;1.40;;;1.30;;
12812;SDS011;6471;50.932;6.934;2023-07-29T11:30:23;2.37;;;1.30;;
12812;SDS011;6471;50.932;6.934;2023-07-29T11:32:52;1.80;;;1.57;;
12812;SDS011;6471;50.932;6.934;2023-07-29T11:35:18;1.50;;;1.40;;
12812;SDS011;6471;50.932;6.934;2023-07-29T11:37:46;2.07;;;1.60;;
12812;SDS011;6471;50.932;6.934;2023-07-29T11:40:16;1.70;;;1.40;;
12812;SDS011;6471;50.932;6.934;2023-07-29T11:42:42;1.40;;;1.30;;
12812;SDS011;6471;50.932;6.934;2023-07-29T11:45:09;1.50;;;1.30;;
12812;SDS011;6471;50.932;6.934;2023-07-29T11:47:35;1.80;;;1.60;;
12812;SDS011;6471;50.932;6.934;2023-07-29T11:50:05;1.40;;;1.30;;
12812;SDS011;6471;50.932;6.934;2023-07-29T11:52:32;1.70;;;1.40;;
12812;SDS011;6471;50.932;6.934;2023-07-29T11:54:59;1.87;;;1.67;;
12812;SDS011;6471;50.932;6.934;2023-07-29T11:57:27;1.73;;;1.40;;
12812;SDS011;6471;50.932;6.934;2023-07-29T11:59:53;2.50;;;1.87;;
12812;SDS011;6471;50.932;6.934;2023-07-29T12:02:19;2.00;;;1.70;;
12812;SDS011;6471;50.932;6.934;2023-07-29T12:04:46;2.30;;;2.03;;
12812;SDS011;6471;50.932;6.934;2023-07-29T12:07:12;2.60;;;1.80;;
12812;SDS011;6471;50.932;6.934;2023-07-29T12:09:39;2.00;;;1.80;;
12812;SDS011;6471;50.932;6.934;2023-07-29T12:12:06;1.80;;;1.70;;
12812;SDS011;6471;50.932;6.934;2023-07-29T12:14:32;2.20;;;1.70;;
12812;SDS011;6471;50.932;6.934;2023-07-29T12:17:02;1.67;;;1.50;;
12812;SDS011;6471;50.932;6.934;2023-07-29T12:19:35;1.50;;;1.40;;
12812;SDS011;6471;50.932;6.934;2023-07-29T12:22:02;1.90;;;1.47;;
12812;SDS011;6471;50.932;6.934;2023-07-29T12:24:32;1.60;;;1.50;;
12812;SDS011;6471;50.932;6.934;2023-07-29T12:26:59;2.87;;;1.57;;
12812;SDS011;6471;50.932;6.934;2023-07-29T12:29:25;1.70;;;1.50;;
12812;SDS011;6471;50.932;6.934;2023-07-29T12:32:02;2.47;;;1.73;;
12812;SDS011;6471;50.932;6.934;2023-07-29T12:34:28;2.33;;;1.70;;
12812;SDS011;6471;50.932;6.934;2023-07-29T12:36:55;2.20;;;1.60;;
12812;SDS011;6471;50.932;6.934;2023-07-29T12:39:28;1.90;;;1.70;;
12812;SDS011;6471;50.932;6.934;2023-07-29T12:41:55;1.50;;;1.40;;
12812;SDS011;6471;50.932;6.934;2023-07-29T12:44:39;1.43;;;1.27;;
12812;SDS011;6471;50.932;6.934;2023-07-29T12:47:06;1.80;;;1.60;;
12812;SDS011;6471;50.932;6.934;2023-07-29T12:49:33;1.93;;;1.73;;
12812;SDS011;6471;50.932;6.934;2023-07-29T12:52:00;1.93;;;1.73;;
12812;SDS011;6471;50.932;6.934;2023-07-29T12:54:26;1.93;;;1.73;;
12812;SDS011;6471;50.932;6.934;2023-07-29T12:56:52;1.60;;;1.47;;
12812;SDS011;6471;50.932;6.934;2023-07-29T12:59:18;1.60;;;1.50;;
12812;SDS011;6471;50.932;6.934;2023-07-29T13:01:44;1.37;;;1.27;;
12812;SDS011;6471;50.932;6.934;2023-07-29T13:04:10;1.50;;;1.40;;
12812;SDS011;6471;50.932;6.934;2023-07-29T13:06:37;1.40;;;1.30;;
12812;SDS011;6471;50.932;6.934;2023-07-29T13:09:03;1.97;;;1.20;;
12812;SDS011;6471;50.932;6.934;2023-07-29T13:11:30;1.70;;;1.40;;
12812;SDS011;6471;50.932;6.934;2023-07-29T13:13:57;1.40;;;1.20;;
12812;SDS011;6471;50.932;6.934;2023-07-29T13:16:23;1.60;;;1.50;;
12812;SDS011;6471;50.932;6.934;2023-07-29T13:18:49;1.30;;;1.20;;
12812;SDS011;6471;50.932;6.934;2023-07-29T13:21:15;1.57;;;1.33;;
12812;SDS011;6471;50.932;6.934;2023-07-29T13:23:41;1.60;;;1.30;;
12812;SDS011;6471;50.932;6.934;2023-07-29T13:26:08;1.53;;;1.40;;
12812;SDS011;6471;50.932;6.934;2023-07-29T13:28:34;1.57;;;1.43;;
12812;SDS011;6471;50.932;6.934;2023-07-29T13:31:00;1.50;;;1.40;;
12812;SDS011;6471;50.932;6.934;2023-07-29T13:33:26;1.70;;;1.50;;
12812;SDS011;6471;50.932;6.934;2023-07-29T13:35:52;1.40;;;1.30;;
12812;SDS011;6471;50.932;6.934;2023-07-29T13:38:18;1.53;;;1.40;;
12812;SDS011;6471;50.932;6.934;2023-07-29T13:40:45;1.60;;;1.40;;
12812;SDS011;6471;50.932;6.934;2023-07-29T13:43:11;1.40;;;1.30;;
12812;SDS011;6471;50.932;6.934;2023-07-29T13:45:37;1.10;;;1.00;;
12812;SDS011;6471;50.932;6.934;2023-07-29T13:48:04;1.50;;;1.40;;
12812;SDS011;6471;50.932;6.934;2023-07-29T13:50:30;1.30;;;1.20;;
12812;SDS011;6471;50.932;6.934;2023-07-29T13:52:56;1.83;;;1.33;;
12812;SDS011;6471;50.932;6.934;2023-07-29T13:55:22;1.60;;;1.33;;
12812;SDS011;6471;50.932;6.934;2023-07-29T13:57:48;1.40;;;1.30;;
12812;SDS011;6471;50.932;6.934;2023-07-29T14:00:14;1.60;;;1.50;;
12812;SDS011;6471;50.932;6.934;2023-07-29T14:02:41;1.40;;;1.30;;
12812;SDS011;6471;50.932;6.934;2023-07-29T14:05:08;1.43;;;1.33;;
12812;SDS011;6471;50.932;6.934;2023-07-29T14:07:36;1.40;;;1.30;;
12812;SDS011;6471;50.932;6.934;2023-07-29T14:10:02;1.20;;;1.10;;
12812;SDS011;6471;50.932;6.934;2023-07-29T14:12:28;1.53;;;1.30;;
12812;SDS011;6471;50.932;6.934;2023-07-29T14:14:54;1.63;;;1.33;;
12812;SDS011;6471;50.932;6.934;2023-07-29T14:17:20;1.27;;;1.17;;
12812;SDS011;6471;50.932;6.934;2023-07-29T14:19:47;1.87;;;1.40;;
12812;SDS011;6471;50.932;6.934;2023-07-29T14:22:13;1.50;;;1.40;;
12812;SDS011;6471;50.932;6.934;2023-07-29T14:24:39;1.47;;;1.30;;
12812;SDS011;6471;50.932;6.934;2023-07-29T14:27:05;1.90;;;1.53;;
12812;SDS011;6471;50.932;6.934;2023-07-29T14:29:31;1.60;;;1.50;;
12812;SDS011;6471;50.932;6.934;2023-07-29T14:31:57;2.10;;;1.50;;
12812;SDS011;6471;50.932;6.934;2023-07-29T14:34:23;1.70;;;1.30;;
12812;SDS011;6471;50.932;6.934;2023-07-29T14:36:49;1.90;;;1.60;;
12812;SDS011;6471;50.932;6.934;2023-07-29T14:39:15;2.40;;;1.60;;
12812;SDS011;6471;50.932;6.934;2023-07-29T14:41:41;1.50;;;1.30;;
12812;SDS011;6471;50.932;6.934;2023-07-29T14:44:07;1.50;;;1.40;;
12812;SDS011;6471;50.932;6.934;2023-07-29T14:46:33;1.50;;;1.40;;
12812;SDS011;6471;50.932;6.934;2023-07-29T14:48:59;1.33;;;1.23;;
12812;SDS011;6471;50.932;6.934;2023-07-29T14:51:25;1.70;;;1.40;;
12812;SDS011;6471;50.932;6.934;2023-07-29T14:53:51;1.70;;;1.50;;
12812;SDS011;6471;50.932;6.934;2023-07-29T14:56:17;3.00;;;1.60;;
12812;SDS011;6471;50.932;6.934;2023-07-29T14:58:44;3.40;;;1.87;;
12812;SDS011;6471;50.932;6.934;2023-07-29T15:01:10;2.83;;;2.00;;
12812;SDS011;6471;50.932;6.934;2023-07-29T15:03:36;1.87;;;1.70;;
12812;SDS011;6471;50.932;6.934;2023-07-29T15:06:03;2.00;;;1.67;;